Time;durP1;ratioP1;P1;durP2;ratioP2;P2;SDS_P1;SDS_P2;PMS_P1;PMS_P2;Temp;Humidity;BMP_temperature;BMP_pressure;BME280_temperature;BME280_humidity;BME280_pressure;Samples;Min_cycle;Max_cycle;Signal;HPM_P1;HPM_P2
2021/05/25 00:01:13;;;;;;;4.35;3.92;;;11.70;99.90;;;;;;4972576;28;20489;-74
2021/05/25 00:03:38;;;;;;;5.30;4.35;;;11.70;99.90;;;;;;4972562;28;20027;-73
2021/05/25 00:06:04;;;;;;;5.63;4.70;;;11.70;99.90;;;;;;4975007;28;20035;-73
2021/05/25 00:08:30;;;;;;;5.38;4.80;;;11.70;99.90;;;;;;4976088;28;20042;-73
2021/05/25 00:10:56;;;;;;;6.57;4.40;;;11.70;99.90;;;;;;4975844;28;20027;-73
2021/05/25 00:13:22;;;;;;;5.97;4.40;;;11.60;99.90;;;;;;4976014;28;20027;-73
2021/05/25 00:15:52;;;;;;;5.15;4.10;;;11.60;99.90;;;;;;4975963;28;20381;-73
2021/05/25 00:18:19;;;;;;;5.95;4.00;;;11.60;99.90;;;;;;4975877;28;20019;-73
2021/05/25 00:20:46;;;;;;;4.45;3.90;;;11.60;99.90;;;;;;5007428;28;20126;-73
2021/05/25 00:23:11;;;;;;;10.48;4.20;;;11.60;99.90;;;;;;4975779;28;20086;-73
2021/05/25 00:25:37;;;;;;;4.63;3.95;;;11.60;99.90;;;;;;4975836;28;20042;-73
2021/05/25 00:28:03;;;;;;;4.10;3.70;;;11.60;99.90;;;;;;4975631;28;20026;-73
2021/05/25 00:30:29;;;;;;;4.18;3.63;;;11.60;99.90;;;;;;4975534;28;20037;-73
2021/05/25 00:32:55;;;;;;;4.45;3.90;;;11.60;99.90;;;;;;5006783;28;20039;-73
2021/05/25 00:35:20;;;;;;;7.80;4.07;;;11.60;99.90;;;;;;4975539;28;20485;-72
2021/05/25 00:37:46;;;;;;;5.93;3.83;;;11.60;99.90;;;;;;4975485;28;20106;-72
2021/05/25 00:40:14;;;;;;;5.60;3.85;;;11.60;99.90;;;;;;4975574;28;20027;-72
2021/05/25 00:42:43;;;;;;;4.38;3.97;;;11.70;99.90;;;;;;4975322;28;20027;-72
2021/05/25 00:45:09;;;;;;;6.15;3.90;;;11.60;99.90;;;;;;5006567;28;20027;-73
2021/05/25 00:47:37;;;;;;;6.35;4.40;;;11.70;99.90;;;;;;4975404;28;20027;-73
2021/05/25 00:50:12;;;;;;;6.55;4.20;;;11.70;99.90;;;;;;4975231;28;20106;-72
2021/05/25 00:53:00;;;;;;;5.70;3.97;;;11.70;99.90;;;;;;4975294;28;20019;-72
2021/05/25 00:55:31;;;;;;;6.32;4.85;;;11.70;99.90;;;;;;4975223;28;20433;-72
2021/05/25 00:57:58;;;;;;;11.45;4.60;;;11.70;99.90;;;;;;4975177;28;20031;-72
2021/05/25 01:00:33;;;;;;;6.13;3.80;;;11.70;99.90;;;;;;4975088;28;20023;-72
2021/05/25 01:02:59;;;;;;;7.40;4.28;;;11.70;99.90;;;;;;5006360;28;20062;-73
2021/05/25 01:05:25;;;;;;;6.40;4.07;;;11.70;99.90;;;;;;4975096;28;20065;-73
2021/05/25 01:07:51;;;;;;;9.30;4.20;;;11.70;99.90;;;;;;4975029;28;20030;-72
2021/05/25 01:10:23;;;;;;;5.35;4.05;;;11.70;99.90;;;;;;4974764;28;20405;-73
2021/05/25 01:13:09;;;;;;;4.55;4.13;;;11.70;99.90;;;;;;4975320;28;20081;-72
2021/05/25 01:15:36;;;;;;;8.48;4.05;;;11.70;99.90;;;;;;5006383;28;20032;-73
2021/05/25 01:18:02;;;;;;;3.95;3.47;;;11.70;99.90;;;;;;4974167;28;20023;-72
2021/05/25 01:20:30;;;;;;;5.70;3.70;;;11.70;99.90;;;;;;4974582;28;20023;-73
2021/05/25 01:22:57;;;;;;;7.13;4.20;;;11.70;99.90;;;;;;4974677;28;20037;-73
2021/05/25 01:25:24;;;;;;;5.93;3.75;;;11.70;99.90;;;;;;4974740;28;20027;-73
2021/05/25 01:27:59;;;;;;;4.95;4.47;;;11.70;99.90;;;;;;4974777;28;20023;-72
2021/05/25 01:30:33;;;;;;;9.70;4.35;;;11.70;99.90;;;;;;4974291;28;20197;-72
2021/05/25 01:33:00;;;;;;;7.85;4.30;;;11.60;99.90;;;;;;4974970;28;20036;-72
2021/05/25 01:35:27;;;;;;;4.43;4.03;;;11.60;99.90;;;;;;4974576;28;20077;-72
2021/05/25 01:37:54;;;;;;;4.40;3.88;;;11.60;99.90;;;;;;4974655;28;20018;-72
2021/05/25 01:40:21;;;;;;;5.35;3.83;;;11.60;99.90;;;;;;4973386;28;20027;-72
2021/05/25 01:42:47;;;;;;;7.72;4.72;;;11.60;99.90;;;;;;4974666;28;20791;-72
2021/05/25 01:45:19;;;;;;;8.70;4.65;;;11.60;99.90;;;;;;4974331;28;20031;-72
2021/05/25 01:47:45;;;;;;;4.47;4.07;;;11.60;99.90;;;;;;4974299;28;20473;-72
2021/05/25 01:50:13;;;;;;;7.70;3.58;;;11.60;99.90;;;;;;4974056;28;20045;-72
2021/05/25 01:52:48;;;;;;;4.05;3.65;;;11.70;99.90;;;;;;4974171;28;20023;-72
2021/05/25 01:55:36;;;;;;;3.90;3.50;;;11.70;99.90;;;;;;4974101;28;20470;-72
2021/05/25 01:58:09;;;;;;;4.15;3.67;;;11.70;99.90;;;;;;4973956;28;20106;-72
2021/05/25 02:00:36;;;;;;;4.72;3.50;;;11.70;99.90;;;;;;4973929;28;20042;-72
2021/05/25 02:03:03;;;;;;;7.18;3.40;;;11.80;99.90;;;;;;4973886;28;20046;-72
2021/05/25 02:05:29;;;;;;;6.65;3.75;;;11.80;99.90;;;;;;4973910;28;20026;-72
2021/05/25 02:07:56;;;;;;;7.82;4.53;;;11.90;99.90;;;;;;4973883;28;20054;-72
2021/05/25 02:10:33;;;;;;;13.23;3.95;;;11.90;99.90;;;;;;4974831;28;20086;-83
2021/05/25 02:13:11;;;;;;;8.18;4.35;;;12.00;99.90;;;;;;5006990;28;20492;-83
2021/05/25 02:15:38;;;;;;;13.63;4.00;;;12.10;99.90;;;;;;4976190;28;20031;-83
2021/05/25 02:18:11;;;;;;;5.13;3.60;;;12.30;99.90;;;;;;4976264;28;20115;-83
2021/05/25 02:20:39;;;;;;;5.50;3.00;;;12.80;99.90;;;;;;4994832;28;20041;-82
2021/05/25 02:23:05;;;;;;;5.90;3.20;;;13.40;99.90;;;;;;4998118;28;20019;-82
2021/05/25 02:25:31;;;;;;;5.35;2.92;;;14.00;99.90;;;;;;4998884;28;20027;-82
2021/05/25 02:27:58;;;;;;;5.40;2.83;;;14.70;99.90;;;;;;4978434;28;20062;-82
2021/05/25 02:30:24;;;;;;;8.55;2.78;;;15.40;99.90;;;;;;4976657;28;20050;-82
2021/05/25 02:32:50;;;;;;;4.82;2.70;;;16.10;99.90;;;;;;4984511;28;20441;-82
2021/05/25 02:35:16;;;;;;;5.43;2.80;;;16.70;99.90;;;;;;4978892;28;20027;-83
2021/05/25 02:37:42;;;;;;;4.45;3.28;;;17.40;99.90;;;;;;4987814;28;20452;-82
2021/05/25 02:40:09;;;;;;;3.03;2.60;;;18.00;99.90;;;;;;4982418;28;20027;-83
2021/05/25 02:42:35;;;;;;;9.88;2.92;;;18.60;99.90;;;;;;4976025;28;20141;-83
2021/05/25 02:45:02;;;;;;;5.57;2.53;;;19.30;99.90;;;;;;4974854;28;20049;-83
2021/05/25 02:47:28;;;;;;;10.85;3.20;;;19.90;99.90;;;;;;4974929;28;20023;-82
2021/05/25 02:49:53;;;;;;;5.05;2.65;;;20.70;99.90;;;;;;4974756;28;20508;-83
2021/05/25 02:52:20;;;;;;;2.92;2.20;;;21.40;99.90;;;;;;4975098;28;20026;-83
2021/05/25 02:54:46;;;;;;;6.45;2.20;;;22.00;98.40;;;;;;4975110;28;20022;-83
2021/05/25 02:57:12;;;;;;;3.58;2.17;;;22.60;95.40;;;;;;5006194;28;20126;-82
2021/05/25 02:59:38;;;;;;;10.63;2.90;;;23.20;92.90;;;;;;4974600;28;20019;-83
2021/05/25 03:02:04;;;;;;;3.55;2.00;;;23.80;90.70;;;;;;4974551;28;20030;-83
2021/05/25 03:04:29;;;;;;;7.72;3.15;;;24.30;87.70;;;;;;4974539;28;20027;-82
2021/05/25 03:06:56;;;;;;;4.00;2.80;;;24.80;84.10;;;;;;4974357;28;20105;-83
2021/05/25 03:09:21;;;;;;;3.72;2.60;;;25.40;81.10;;;;;;4974373;28;20081;-82
2021/05/25 03:11:47;;;;;;;7.55;2.80;;;25.80;78.40;;;;;;5005959;28;20035;-82
2021/05/25 03:14:13;;;;;;;4.32;2.53;;;26.30;76.50;;;;;;4974873;28;20458;-82
2021/05/25 03:16:39;;;;;;;10.70;3.13;;;26.70;74.70;;;;;;4974778;28;20030;-83
2021/05/25 03:19:05;;;;;;;2.42;2.20;;;27.20;73.00;;;;;;4974538;28;20034;-83
2021/05/25 03:21:31;;;;;;;8.88;2.95;;;27.60;71.00;;;;;;4974484;28;20025;-83
2021/05/25 03:23:57;;;;;;;6.43;2.83;;;28.10;69.30;;;;;;4974110;28;20031;-83
2021/05/25 03:26:23;;;;;;;7.30;2.60;;;28.50;67.80;;;;;;4974035;28;20110;-83
2021/05/25 03:28:49;;;;;;;6.28;2.70;;;28.90;66.60;;;;;;4973735;28;20110;-83
2021/05/25 03:31:15;;;;;;;9.07;2.80;;;29.40;65.00;;;;;;4973706;28;20042;-83
2021/05/25 03:33:41;;;;;;;12.50;3.10;;;29.80;63.70;;;;;;4973958;28;20070;-81
2021/05/25 03:36:08;;;;;;;5.75;3.30;;;30.20;62.90;;;;;;4974949;28;20054;-83
2021/05/25 03:38:34;;;;;;;9.55;3.33;;;30.60;61.70;;;;;;4993307;28;20011;-82
2021/05/25 03:41:00;;;;;;;3.63;2.20;;;31.00;60.80;;;;;;4999675;28;20034;-82
2021/05/25 03:43:25;;;;;;;2.60;2.33;;;31.40;59.90;;;;;;4997594;28;20058;-81
2021/05/25 03:45:51;;;;;;;3.45;1.92;;;31.80;59.00;;;;;;4979724;28;20030;-81
2021/05/25 03:48:17;;;;;;;6.85;2.50;;;32.30;58.40;;;;;;4979233;28;20058;-81
2021/05/25 03:50:44;;;;;;;3.95;2.33;;;32.80;57.50;;;;;;4978318;28;20026;-82
2021/05/25 03:53:10;;;;;;;4.55;1.70;;;33.20;56.20;;;;;;4978113;28;20046;-83
2021/05/25 03:55:47;;;;;;;3.63;2.10;;;33.70;55.10;;;;;;4981324;28;20113;-83
2021/05/25 04:00:58;;;;;;;3.58;2.05;;;34.60;53.40;;;;;;4985652;28;20033;-84
2021/05/25 04:03:24;;;;;;;3.60;1.88;;;35.10;52.60;;;;;;4978188;28;20390;-84
2021/05/25 04:05:50;;;;;;;2.42;1.80;;;35.40;51.30;;;;;;4977645;28;20146;-83
2021/05/25 04:08:17;;;;;;;2.72;2.00;;;35.70;50.50;;;;;;4977817;28;20370;-84
2021/05/25 04:10:44;;;;;;;2.47;2.13;;;36.00;49.70;;;;;;4977852;28;20058;-83
2021/05/25 04:13:09;;;;;;;4.03;2.22;;;36.30;49.10;;;;;;4978026;28;20030;-84
2021/05/25 04:15:43;;;;;;;3.85;2.63;;;36.60;48.60;;;;;;4977227;28;20030;-84
2021/05/25 04:18:09;;;;;;;3.33;1.80;;;36.80;47.00;;;;;;4977880;28;20462;-84
2021/05/25 04:20:34;;;;;;;2.40;2.25;;;37.00;47.70;;;;;;4978108;28;20038;-82
2021/05/25 04:23:00;;;;;;;3.70;2.10;;;37.30;47.20;;;;;;4985630;28;20030;-83
2021/05/25 04:25:26;;;;;;;2.92;1.88;;;37.60;46.70;;;;;;4981049;28;20022;-82
2021/05/25 04:27:52;;;;;;;2.03;1.63;;;37.80;45.90;;;;;;4977165;28;20469;-83
2021/05/25 04:30:19;;;;;;;3.38;2.08;;;38.10;45.50;;;;;;4976084;28;20047;-83
2021/05/25 04:32:44;;;;;;;2.25;1.95;;;38.40;45.20;;;;;;4976256;28;20031;-82
2021/05/25 04:35:11;;;;;;;7.40;2.10;;;38.60;44.60;;;;;;4976748;28;20156;-82
2021/05/25 04:37:36;;;;;;;5.75;2.00;;;38.80;44.40;;;;;;4975221;28;20496;-83
2021/05/25 04:40:03;;;;;;;2.50;1.80;;;39.00;43.90;;;;;;4976705;28;20026;-83
2021/05/25 04:42:28;;;;;;;6.57;1.73;;;39.20;43.30;;;;;;4976459;28;20038;-84
2021/05/25 04:44:54;;;;;;;4.82;2.30;;;39.20;43.20;;;;;;4976038;28;20194;-83
2021/05/25 04:47:20;;;;;;;3.60;2.30;;;39.30;42.80;;;;;;4976585;28;20027;-83
2021/05/25 04:49:46;;;;;;;2.85;1.90;;;39.50;42.70;;;;;;4976451;28;20031;-82
2021/05/25 04:52:11;;;;;;;3.13;2.00;;;39.70;42.40;;;;;;4975386;28;20030;-84
2021/05/25 04:54:37;;;;;;;1.90;1.80;;;40.00;42.30;;;;;;5014234;28;20030;-86
2021/05/25 04:57:03;;;;;;;2.63;2.15;;;40.20;41.90;;;;;;4979530;28;20077;-82
2021/05/25 04:59:29;;;;;;;4.40;2.50;;;40.50;41.80;;;;;;4986135;28;20053;-83
2021/05/25 05:01:55;;;;;;;6.03;2.35;;;40.70;41.40;;;;;;4983344;28;20023;-83
2021/05/25 05:04:20;;;;;;;10.48;3.38;;;41.00;41.20;;;;;;4996289;28;20018;-83
2021/05/25 05:06:46;;;;;;;3.00;2.30;;;41.30;41.00;;;;;;4993523;28;20027;-82
2021/05/25 05:09:13;;;;;;;5.53;2.75;;;41.40;40.70;;;;;;4986678;28;20023;-84
2021/05/25 05:11:39;;;;;;;5.75;2.13;;;41.70;40.60;;;;;;4976732;28;20421;-82
2021/05/25 05:14:05;;;;;;;17.80;3.50;;;41.80;40.30;;;;;;4977626;28;20050;-83
2021/05/25 05:16:31;;;;;;;2.70;2.08;;;42.00;39.80;;;;;;5007338;28;20092;-82
2021/05/25 05:18:56;;;;;;;10.85;4.60;;;42.20;39.60;;;;;;4975418;28;20504;-81
2021/05/25 05:21:22;;;;;;;2.35;1.80;;;42.30;39.20;;;;;;4974533;28;20120;-83
2021/05/25 05:23:48;;;;;;;4.38;2.08;;;42.60;38.90;;;;;;4974415;28;20551;-79
2021/05/25 05:26:14;;;;;;;2.53;2.08;;;42.60;38.60;;;;;;4974001;28;20031;-81
2021/05/25 05:28:40;;;;;;;5.38;2.97;;;42.60;38.40;;;;;;4974284;28;20035;-84
2021/05/25 05:31:06;;;;;;;2.67;1.80;;;42.70;38.10;;;;;;4973586;28;20481;-83
2021/05/25 05:33:31;;;;;;;1.80;1.70;;;42.70;37.90;;;;;;4973725;28;20034;-82
2021/05/25 05:36:00;;;;;;;4.90;3.40;;;42.70;38.00;;;;;;5008543;28;20355;-82
2021/05/25 05:38:26;;;;;;;6.18;3.22;;;42.70;37.60;;;;;;4980130;28;20022;-83
2021/05/25 05:40:52;;;;;;;5.40;2.60;;;42.90;37.50;;;;;;4975843;28;20093;-82
2021/05/25 05:43:18;;;;;;;5.35;2.28;;;43.00;37.20;;;;;;4975788;28;20057;-84
2021/05/25 05:45:44;;;;;;;7.57;2.75;;;42.70;37.00;;;;;;4974967;28;20477;-83
2021/05/25 05:48:10;;;;;;;5.68;2.88;;;42.60;36.90;;;;;;4974560;28;20033;-83
2021/05/25 05:50:36;;;;;;;5.82;2.35;;;42.50;36.90;;;;;;4974516;28;20085;-83
2021/05/25 05:53:02;;;;;;;4.53;2.20;;;42.50;37.00;;;;;;4974523;28;20783;-81
2021/05/25 05:55:28;;;;;;;9.18;2.70;;;42.20;36.40;;;;;;4974213;28;20038;-82
2021/05/25 05:57:53;;;;;;;7.13;2.20;;;41.20;36.60;;;;;;4974050;28;20038;-83
2021/05/25 06:00:21;;;;;;;7.30;3.03;;;40.40;38.80;;;;;;4974115;28;20026;-84
2021/05/25 06:02:47;;;;;;;5.10;2.15;;;40.00;39.90;;;;;;4974111;28;20023;-83
2021/05/25 06:05:13;;;;;;;2.65;2.05;;;40.10;40.70;;;;;;4974703;28;20031;-83
2021/05/25 06:07:38;;;;;;;3.78;2.33;;;40.00;39.80;;;;;;4974105;28;20030;-82
2021/05/25 06:10:06;;;;;;;4.50;2.20;;;39.40;40.20;;;;;;4973474;28;20038;-82
2021/05/25 06:12:32;;;;;;;7.53;2.13;;;38.90;40.90;;;;;;4977290;28;20023;-82
2021/05/25 06:14:58;;;;;;;3.03;2.03;;;38.60;40.20;;;;;;4981714;28;20031;-82
2021/05/25 06:17:24;;;;;;;4.57;2.08;;;37.90;41.50;;;;;;4975133;28;20023;-82
2021/05/25 06:19:49;;;;;;;4.22;2.22;;;37.90;41.80;;;;;;4974586;28;20041;-81
2021/05/25 06:22:15;;;;;;;3.97;1.95;;;38.00;41.90;;;;;;4974280;28;20030;-82
2021/05/25 06:24:41;;;;;;;2.42;2.20;;;37.50;41.20;;;;;;4973814;28;20042;-80
2021/05/25 06:27:07;;;;;;;5.25;2.42;;;37.30;41.60;;;;;;4973953;28;20023;-82
2021/05/25 06:29:32;;;;;;;2.00;1.88;;;36.80;41.00;;;;;;4974863;28;20039;-84
2021/05/25 06:32:02;;;;;;;6.03;3.03;;;36.90;40.70;;;;;;4985267;28;20098;-85
2021/05/25 06:34:28;;;;;;;3.80;2.20;;;37.30;40.40;;;;;;4988418;28;20019;-84
2021/05/25 06:36:55;;;;;;;3.67;2.10;;;37.70;39.30;;;;;;4993171;28;20026;-84
2021/05/25 06:39:21;;;;;;;3.15;1.90;;;37.70;38.50;;;;;;4977289;28;20023;-86
2021/05/25 06:41:46;;;;;;;2.92;2.13;;;37.20;37.70;;;;;;4974172;28;20495;-84
2021/05/25 06:44:12;;;;;;;3.85;1.92;;;36.90;37.60;;;;;;4974064;28;20030;-85
2021/05/25 06:46:38;;;;;;;3.83;1.90;;;36.80;37.40;;;;;;4974571;28;20054;-84
2021/05/25 06:49:04;;;;;;;3.65;1.70;;;36.90;36.30;;;;;;4981994;28;20026;-85
2021/05/25 06:51:30;;;;;;;2.78;1.95;;;37.10;35.20;;;;;;4984236;28;20034;-83
2021/05/25 06:53:56;;;;;;;3.40;2.08;;;36.50;34.30;;;;;;4975715;28;20023;-83
2021/05/25 06:56:21;;;;;;;2.90;2.10;;;35.80;34.90;;;;;;4974406;28;20035;-85
2021/05/25 06:58:47;;;;;;;6.15;2.13;;;35.70;35.10;;;;;;4974025;28;20068;-84
2021/05/25 07:01:13;;;;;;;7.25;2.08;;;35.90;35.60;;;;;;4975319;28;20027;-84
2021/05/25 07:03:39;;;;;;;3.45;2.00;;;35.70;34.90;;;;;;4974042;28;20026;-84
2021/05/25 07:06:05;;;;;;;2.47;1.90;;;35.60;34.50;;;;;;4972342;28;20034;-85
2021/05/25 07:08:30;;;;;;;1.83;1.73;;;34.90;34.60;;;;;;4973452;28;20057;-76
2021/05/25 07:10:56;;;;;;;2.63;2.42;;;34.20;35.10;;;;;;4972409;28;20106;-75
2021/05/25 07:13:22;;;;;;;6.22;2.50;;;33.70;36.20;;;;;;4972624;28;20031;-76
2021/05/25 07:15:47;;;;;;;4.15;1.75;;;33.90;37.10;;;;;;4975335;28;20441;-76
2021/05/25 07:18:16;;;;;;;4.18;2.22;;;34.40;36.70;;;;;;4976795;28;20022;-76
2021/05/25 07:20:43;;;;;;;2.60;1.67;;;34.70;36.20;;;;;;4976843;28;20155;-76
2021/05/25 07:23:10;;;;;;;4.15;2.30;;;34.80;35.60;;;;;;4976812;28;20121;-76
2021/05/25 07:25:37;;;;;;;2.00;1.60;;;34.60;35.60;;;;;;4976620;28;20039;-75
2021/05/25 07:28:03;;;;;;;3.45;1.83;;;34.10;35.80;;;;;;4975272;28;20029;-76
2021/05/25 07:30:29;;;;;;;3.10;1.63;;;33.60;35.70;;;;;;4976187;28;20074;-76
2021/05/25 07:32:55;;;;;;;3.45;1.92;;;32.80;36.30;;;;;;4976774;28;20102;-76
2021/05/25 07:35:21;;;;;;;2.85;1.92;;;32.50;37.80;;;;;;4975996;28;20026;-75
2021/05/25 07:37:47;;;;;;;4.18;1.90;;;32.90;37.30;;;;;;4976250;28;20022;-76
2021/05/25 07:40:15;;;;;;;2.97;1.80;;;33.00;37.30;;;;;;4976319;28;20101;-76
2021/05/25 07:42:41;;;;;;;2.95;2.00;;;33.00;36.60;;;;;;4976378;28;20115;-76
2021/05/25 07:45:08;;;;;;;9.65;2.45;;;32.80;36.70;;;;;;4976352;28;20128;-76
2021/05/25 07:47:33;;;;;;;2.72;2.10;;;32.40;36.60;;;;;;4976236;28;20045;-75
2021/05/25 07:50:12;;;;;;;1.70;1.60;;;32.10;36.70;;;;;;4975821;28;20477;-75
2021/05/25 07:52:43;;;;;;;3.42;1.95;;;31.70;37.10;;;;;;4976453;28;20037;-76
2021/05/25 07:55:09;;;;;;;8.57;2.28;;;31.40;37.20;;;;;;4975924;28;20015;-76
2021/05/25 07:57:35;;;;;;;5.22;1.88;;;30.90;38.30;;;;;;4976403;28;20488;-75
2021/05/25 08:00:02;;;;;;;3.97;2.33;;;30.60;38.40;;;;;;4976586;28;20031;-76
2021/05/25 08:02:28;;;;;;;8.15;3.30;;;30.40;39.10;;;;;;4974518;28;20118;-76
2021/05/25 08:04:54;;;;;;;4.07;1.65;;;30.30;39.90;;;;;;4976006;28;20101;-75
2021/05/25 08:07:19;;;;;;;3.80;1.90;;;30.20;39.30;;;;;;4976213;28;20498;-75
2021/05/25 08:09:46;;;;;;;5.50;2.08;;;29.90;39.50;;;;;;4975582;28;20022;-75
2021/05/25 08:12:12;;;;;;;31.38;2.38;;;29.70;39.50;;;;;;4975735;28;20451;-76
2021/05/25 08:14:38;;;;;;;4.45;1.90;;;29.50;40.10;;;;;;4975546;28;20031;-76
2021/05/25 08:17:18;;;;;;;3.25;1.90;;;29.80;40.50;;;;;;4975671;28;20034;-76
2021/05/25 08:19:46;;;;;;;17.88;2.05;;;30.10;40.40;;;;;;4975056;28;20023;-77
2021/05/25 08:22:12;;;;;;;3.90;2.40;;;30.40;39.50;;;;;;4974157;28;20445;-75
2021/05/25 08:24:37;;;;;;;4.88;3.63;;;30.30;39.00;;;;;;4975041;28;20030;-76
2021/05/25 08:27:04;;;;;;;5.95;2.30;;;30.20;39.80;;;;;;4975312;28;20061;-76
2021/05/25 08:29:32;;;;;;;2.22;1.98;;;29.90;39.40;;;;;;4975463;28;20050;-76
2021/05/25 08:31:58;;;;;;;3.50;1.75;;;29.60;39.70;;;;;;4975314;28;20039;-76
2021/05/25 08:34:24;;;;;;;1.50;1.40;;;29.60;40.00;;;;;;4975738;28;20023;-85
2021/05/25 08:36:51;;;;;;;4.93;2.22;;;29.50;39.40;;;;;;4976859;28;20019;-86
2021/05/25 08:39:17;;;;;;;3.50;1.55;;;29.60;40.00;;;;;;4981610;28;20030;-85
2021/05/25 08:41:43;;;;;;;2.30;1.60;;;29.70;39.50;;;;;;4987332;28;20033;-83
2021/05/25 08:44:09;;;;;;;4.97;1.60;;;29.70;39.80;;;;;;4982900;28;20126;-83
2021/05/25 08:46:35;;;;;;;2.67;2.20;;;29.90;39.40;;;;;;4977756;28;20059;-85
2021/05/25 08:49:02;;;;;;;4.22;2.20;;;30.00;38.90;;;;;;4976623;28;20150;-86
2021/05/25 08:51:27;;;;;;;2.65;1.55;;;29.80;39.10;;;;;;4982150;28;20046;-85
2021/05/25 08:53:53;;;;;;;7.43;2.80;;;29.60;39.10;;;;;;4986979;28;20026;-87
2021/05/25 08:56:19;;;;;;;2.47;1.90;;;29.50;39.80;;;;;;4982185;28;20073;-86
2021/05/25 08:58:45;;;;;;;6.18;1.70;;;29.40;39.70;;;;;;4977917;28;20050;-87
2021/05/25 09:01:12;;;;;;;22.52;11.00;;;29.20;40.10;;;;;;4976889;28;20050;-84
2021/05/25 09:04:07;;;;;;;4.07;1.85;;;29.20;40.60;;;;;;4976794;28;20019;-83
2021/05/25 09:06:36;;;;;;;1.85;1.63;;;28.90;40.20;;;;;;4976176;28;20042;-85
2021/05/25 09:09:11;;;;;;;4.07;2.20;;;28.70;40.90;;;;;;4977328;28;20668;-85
2021/05/25 09:12:13;;;;;;;10.25;1.70;;;28.80;41.80;;;;;;4977306;28;20031;-88
2021/05/25 09:14:49;;;;;;;3.33;1.90;;;29.10;41.70;;;;;;4907136;29;20044;-85
2021/05/25 09:17:25;;;;;;;1.45;1.33;;;29.40;41.80;;;;;;4962470;28;20063;-84
2021/05/25 09:19:53;;;;;;;2.63;1.52;;;29.40;39.50;;;;;;4977717;28;20034;-85
2021/05/25 09:22:48;;;;;;;4.35;1.80;;;29.20;39.30;;;;;;4981656;28;20022;-85
2021/05/25 09:25:23;;;;;;;3.63;1.55;;;28.70;39.00;;;;;;4979398;28;20490;-76
2021/05/25 09:28:02;;;;;;;2.75;2.00;;;28.50;39.60;;;;;;4974436;28;20019;-75
2021/05/25 09:30:29;;;;;;;1.70;1.60;;;28.30;40.20;;;;;;4973441;28;20181;-76
2021/05/25 09:33:00;;;;;;;2.35;1.85;;;27.90;40.50;;;;;;4974375;28;20035;-75
2021/05/25 09:35:30;;;;;;;3.30;1.90;;;27.60;41.10;;;;;;4974355;28;20077;-76
2021/05/25 09:37:58;;;;;;;4.10;1.73;;;27.20;41.20;;;;;;4973719;28;20106;-77
2021/05/25 09:40:27;;;;;;;3.45;1.73;;;27.10;41.70;;;;;;4974186;28;20023;-76
2021/05/25 09:42:56;;;;;;;6.32;1.63;;;26.70;41.70;;;;;;4973948;28;20034;-76
2021/05/25 09:45:22;;;;;;;2.65;2.40;;;26.60;42.70;;;;;;4973821;28;20030;-77
2021/05/25 09:47:54;;;;;;;5.78;2.70;;;26.60;43.10;;;;;;4973626;28;20034;-76
2021/05/25 09:50:25;;;;;;;3.78;1.70;;;26.70;43.10;;;;;;4973742;28;20046;-77
2021/05/25 09:53:05;;;;;;;3.75;1.25;;;26.70;43.20;;;;;;4974288;28;20031;-76
2021/05/25 09:55:45;;;;;;;2.00;1.63;;;26.40;43.20;;;;;;4972804;28;20023;-75
2021/05/25 09:58:14;;;;;;;2.20;1.50;;;26.30;43.50;;;;;;4973781;28;20022;-76
2021/05/25 10:00:40;;;;;;;6.90;2.40;;;26.10;44.00;;;;;;4972443;28;20162;-76
2021/05/25 10:03:13;;;;;;;6.10;2.30;;;26.00;44.10;;;;;;4973731;28;20066;-76
2021/05/25 10:06:02;;;;;;;7.97;2.00;;;25.90;44.50;;;;;;4974051;28;20051;-90
2021/05/25 10:08:28;;;;;;;8.82;2.33;;;25.80;44.30;;;;;;4973782;28;20019;-76
2021/05/25 10:10:56;;;;;;;2.80;1.95;;;25.60;44.30;;;;;;4973587;28;20098;-78
2021/05/25 10:13:34;;;;;;;2.05;1.63;;;25.40;44.40;;;;;;4973579;28;20574;-77
2021/05/25 10:16:01;;;;;;;4.97;1.80;;;25.20;44.90;;;;;;4972997;28;20125;-77
2021/05/25 10:20:57;;;;;;;3.72;1.85;;;25.10;45.90;;;;;;4973595;28;20031;-77
2021/05/25 10:23:23;;;;;;;3.40;2.10;;;25.10;46.20;;;;;;4973277;28;20496;-79
2021/05/25 10:25:52;;;;;;;2.88;2.10;;;25.20;46.20;;;;;;4973184;28;20102;-78
2021/05/25 10:28:19;;;;;;;7.15;1.70;;;25.20;46.00;;;;;;4972901;28;20110;-78
2021/05/25 10:30:49;;;;;;;3.20;1.73;;;25.10;45.60;;;;;;4974085;28;20031;-77
2021/05/25 10:33:30;;;;;;;3.58;1.80;;;24.90;45.50;;;;;;4956742;28;20057;-80
2021/05/25 10:35:57;;;;;;;2.60;2.05;;;24.60;45.80;;;;;;4974177;28;20061;-77
2021/05/25 10:38:28;;;;;;;2.28;1.42;;;24.60;46.70;;;;;;4972597;28;20035;-77
2021/05/25 10:40:56;;;;;;;5.35;2.22;;;24.70;46.90;;;;;;4961120;28;20037;-78
2021/05/25 10:43:35;;;;;;;3.05;1.70;;;24.80;45.90;;;;;;4970895;28;20042;-77
2021/05/25 10:46:12;;;;;;;5.38;2.00;;;24.60;45.40;;;;;;4973179;28;20026;-78
2021/05/25 10:49:12;;;;;;;2.13;1.40;;;24.50;45.90;;;;;;4972773;28;20058;-78
2021/05/25 10:51:53;;;;;;;3.90;1.70;;;24.40;45.30;;;;;;4967066;28;20035;-77
2021/05/25 10:54:21;;;;;;;4.32;1.60;;;24.40;45.10;;;;;;4975146;28;20025;-77
2021/05/25 10:56:48;;;;;;;1.77;1.67;;;24.20;45.40;;;;;;4977777;28;20089;-78
2021/05/25 10:59:15;;;;;;;1.48;1.38;;;24.30;45.60;;;;;;4975249;28;20493;-78
2021/05/25 11:01:41;;;;;;;4.80;1.58;;;24.20;45.60;;;;;;4972035;28;20031;-77
2021/05/25 11:04:14;;;;;;;2.90;1.67;;;24.20;45.50;;;;;;4971718;28;20150;-78
2021/05/25 11:06:40;;;;;;;3.92;1.50;;;24.10;45.10;;;;;;4973485;28;20117;-79
2021/05/25 11:09:27;;;;;;;3.85;1.92;;;24.00;45.10;;;;;;4973609;28;20055;-78
2021/05/25 11:12:16;;;;;;;4.13;1.58;;;23.90;45.70;;;;;;4972618;28;20030;-78
2021/05/25 11:15:14;;;;;;;2.70;1.60;;;23.90;45.60;;;;;;4968564;28;20034;-79
2021/05/25 11:17:40;;;;;;;2.95;1.23;;;23.90;45.60;;;;;;4973649;28;20470;-77
2021/05/25 11:20:48;;;;;;;3.42;1.40;;;23.90;45.60;;;;;;4972513;28;20049;-77
2021/05/25 11:23:53;;;;;;;1.50;1.35;;;23.80;46.00;;;;;;4969777;28;20069;-78
2021/05/25 11:26:56;;;;;;;2.35;1.52;;;23.80;45.70;;;;;;4912982;29;20031;-78
2021/05/25 11:29:24;;;;;;;3.58;1.30;;;23.70;45.50;;;;;;4912973;29;20040;-78
2021/05/25 11:31:50;;;;;;;1.55;1.25;;;23.60;45.50;;;;;;4913330;29;20139;-77
2021/05/25 11:34:20;;;;;;;1.33;1.10;;;23.60;45.70;;;;;;4897620;29;20083;-76
2021/05/25 11:36:51;;;;;;;2.72;1.63;;;23.60;46.10;;;;;;4913104;29;20033;-78
2021/05/25 11:39:19;;;;;;;3.50;1.35;;;23.60;46.20;;;;;;4912868;29;20471;-78
2021/05/25 11:41:45;;;;;;;1.48;1.35;;;23.60;46.50;;;;;;4915263;29;20032;-88
2021/05/25 11:44:12;;;;;;;2.72;1.60;;;23.60;46.30;;;;;;4924556;29;20044;-86
2021/05/25 11:46:58;;;;;;;3.20;1.42;;;23.60;46.30;;;;;;4935103;29;20040;-85
2021/05/25 11:49:25;;;;;;;4.15;1.20;;;23.70;46.60;;;;;;4915877;29;20152;-88
2021/05/25 11:51:51;;;;;;;3.38;1.55;;;23.70;46.50;;;;;;4914402;29;20040;-89
2021/05/25 11:54:21;;;;;;;2.55;1.05;;;23.70;46.70;;;;;;4917174;29;20029;-86
2021/05/25 11:56:50;;;;;;;5.88;1.80;;;23.60;46.70;;;;;;4939393;28;20031;-87
2021/05/25 11:59:21;;;;;;;7.82;2.00;;;23.60;47.20;;;;;;4974562;28;20077;-87
2021/05/25 12:01:50;;;;;;;1.95;1.50;;;23.70;47.40;;;;;;4976142;28;20019;-86
2021/05/25 12:04:17;;;;;;;3.88;1.70;;;23.60;47.80;;;;;;4978716;28;20118;-87
2021/05/25 12:06:46;;;;;;;3.92;1.77;;;23.60;47.90;;;;;;4978141;28;20026;-85
2021/05/25 12:09:12;;;;;;;3.75;2.25;;;23.50;48.00;;;;;;4979594;28;20023;-87
2021/05/25 12:11:40;;;;;;;3.45;1.70;;;23.60;47.90;;;;;;4981695;28;20126;-86
2021/05/25 12:14:07;;;;;;;2.80;1.67;;;23.60;47.90;;;;;;4980382;28;20068;-87
2021/05/25 12:16:33;;;;;;;3.50;1.70;;;23.60;47.90;;;;;;4986347;28;20019;-85
2021/05/25 12:18:59;;;;;;;2.28;2.15;;;23.60;48.30;;;;;;4993555;28;20030;-88
2021/05/25 12:21:25;;;;;;;3.28;1.55;;;23.60;48.20;;;;;;4996078;28;20031;-87
2021/05/25 12:23:51;;;;;;;2.63;1.70;;;23.50;48.30;;;;;;4993489;28;20031;-87
2021/05/25 12:26:19;;;;;;;4.55;2.00;;;23.40;48.20;;;;;;4982809;28;20033;-88
2021/05/25 12:28:48;;;;;;;4.95;2.25;;;23.40;48.50;;;;;;4980210;28;20045;-86
2021/05/25 12:31:14;;;;;;;1.73;1.35;;;23.30;48.70;;;;;;4977953;28;20019;-88
2021/05/25 12:33:47;;;;;;;1.42;1.33;;;23.20;48.90;;;;;;4978517;28;20031;-87
2021/05/25 12:36:46;;;;;;;3.95;3.30;;;23.20;48.90;;;;;;4994669;28;20023;-87
2021/05/25 12:39:23;;;;;;;6.35;2.50;;;23.20;49.10;;;;;;4984223;28;20065;-88
2021/05/25 12:41:50;;;;;;;3.05;2.15;;;23.20;49.30;;;;;;4993381;28;20331;-86
2021/05/25 12:44:19;;;;;;;5.00;2.40;;;23.30;49.40;;;;;;4977356;28;20066;-86
2021/05/25 12:47:14;;;;;;;5.18;1.65;;;23.30;49.50;;;;;;4977982;28;20122;-86
2021/05/25 12:49:53;;;;;;;4.10;2.10;;;23.20;49.30;;;;;;4973688;28;20528;-86
2021/05/25 12:52:19;;;;;;;2.78;1.70;;;23.20;49.30;;;;;;4975388;28;20037;-87
2021/05/25 12:54:51;;;;;;;3.92;1.90;;;23.10;49.60;;;;;;5008382;28;20037;-86
2021/05/25 12:57:17;;;;;;;3.53;1.95;;;23.20;49.60;;;;;;4975814;28;20029;-77
2021/05/25 12:59:43;;;;;;;4.45;1.80;;;23.20;49.60;;;;;;4974540;28;20026;-77